Time;durP1;ratioP1;P1;durP2;ratioP2;P2;SDS_P1;SDS_P2;PMS_P1;PMS_P2;Temp;Humidity;BMP_temperature;BMP_pressure;BME280_temperature;BME280_humidity;BME280_pressure;Samples;Min_cycle;Max_cycle;Signal;HPM_P1;HPM_P2
2021/11/11 00:00:29;;;;;;;14.98;10.65;;;1.60;99.90;;;;;;5002876;28;20124;-66
2021/11/11 00:02:55;;;;;;;18.10;11.63;;;1.50;99.90;;;;;;4995326;28;20097;-66
2021/11/11 00:05:21;;;;;;;18.02;11.90;;;1.60;99.90;;;;;;4990981;28;20049;-67
2021/11/11 00:07:47;;;;;;;22.23;10.85;;;1.50;99.90;;;;;;4998106;28;20032;-67
2021/11/11 00:10:15;;;;;;;17.23;10.75;;;1.50;99.90;;;;;;4995154;28;21980;-67
2021/11/11 00:12:42;;;;;;;16.88;10.55;;;1.50;99.90;;;;;;5000639;28;20030;-67
2021/11/11 00:15:11;;;;;;;21.55;11.35;;;1.50;99.90;;;;;;4998611;28;20041;-66
2021/11/11 00:17:38;;;;;;;34.92;17.55;;;1.50;99.90;;;;;;4999581;28;20494;-67
2021/11/11 00:20:05;;;;;;;41.22;18.70;;;1.60;99.90;;;;;;4997058;28;20034;-66
2021/11/11 00:22:31;;;;;;;22.05;14.27;;;1.50;99.90;;;;;;4993380;28;20042;-67
2021/11/11 00:24:57;;;;;;;18.30;11.15;;;1.60;99.90;;;;;;4999435;28;20037;-67
2021/11/11 00:27:22;;;;;;;16.48;9.98;;;1.50;99.90;;;;;;5004917;28;20030;-67
2021/11/11 00:29:48;;;;;;;15.05;9.18;;;1.60;99.90;;;;;;4997561;28;20382;-67
2021/11/11 00:32:14;;;;;;;15.02;10.63;;;1.50;99.90;;;;;;5000203;28;20034;-66
2021/11/11 00:34:40;;;;;;;38.00;11.45;;;1.50;99.90;;;;;;4995500;28;20034;-66
2021/11/11 00:37:07;;;;;;;16.75;9.75;;;1.50;99.90;;;;;;5018225;28;20030;-66
2021/11/11 00:39:33;;;;;;;27.58;10.27;;;1.40;99.90;;;;;;5001179;28;20053;-66
2021/11/11 00:41:58;;;;;;;39.70;12.85;;;1.40;99.90;;;;;;5000959;28;20022;-66
2021/11/11 00:44:24;;;;;;;22.55;11.57;;;1.40;99.90;;;;;;4998988;28;20080;-66
2021/11/11 00:46:50;;;;;;;18.58;10.90;;;1.40;99.90;;;;;;5003479;28;20116;-67
2021/11/11 00:49:15;;;;;;;16.23;9.60;;;1.50;99.90;;;;;;4994308;28;20068;-66
2021/11/11 00:51:42;;;;;;;36.53;12.27;;;1.40;99.90;;;;;;4997080;28;20053;-66
2021/11/11 00:54:08;;;;;;;19.63;11.45;;;1.40;99.90;;;;;;5014599;28;20037;-66
2021/11/11 00:56:34;;;;;;;20.77;9.93;;;1.40;99.90;;;;;;4998920;28;20438;-66
2021/11/11 00:59:00;;;;;;;14.48;9.43;;;1.40;99.90;;;;;;5002191;28;20044;-66
2021/11/11 01:01:30;;;;;;;16.20;10.40;;;1.40;99.90;;;;;;5002339;28;20034;-67
2021/11/11 01:04:00;;;;;;;15.77;10.38;;;1.40;99.90;;;;;;4997654;28;20062;-66
2021/11/11 01:06:27;;;;;;;14.10;10.13;;;1.40;99.90;;;;;;4998020;28;20155;-67
2021/11/11 01:08:54;;;;;;;17.88;9.95;;;1.40;99.90;;;;;;5001516;28;20060;-67
2021/11/11 01:11:20;;;;;;;19.45;12.25;;;1.40;99.90;;;;;;5003105;28;20047;-69
2021/11/11 01:13:46;;;;;;;35.53;12.50;;;1.40;99.90;;;;;;4992928;28;20042;-67
2021/11/11 01:16:12;;;;;;;16.52;10.77;;;1.30;99.90;;;;;;5002675;28;20041;-67
2021/11/11 01:18:38;;;;;;;26.52;12.40;;;1.30;99.90;;;;;;5004456;28;20026;-67
2021/11/11 01:21:05;;;;;;;45.33;12.00;;;1.10;99.90;;;;;;5008342;28;20037;-67
2021/11/11 01:23:31;;;;;;;18.20;10.40;;;1.20;99.90;;;;;;5003798;28;20475;-67
2021/11/11 01:25:57;;;;;;;56.47;14.50;;;1.20;99.90;;;;;;5018261;28;20033;-67
2021/11/11 01:28:22;;;;;;;32.67;11.90;;;1.10;99.90;;;;;;5003655;28;20026;-67
2021/11/11 01:30:48;;;;;;;24.48;11.60;;;1.10;99.90;;;;;;5001407;28;20049;-67
2021/11/11 01:33:15;;;;;;;15.43;10.02;;;1.10;99.90;;;;;;5001937;28;20026;-67
2021/11/11 01:35:41;;;;;;;35.75;13.07;;;1.20;99.90;;;;;;4998041;28;20030;-67
2021/11/11 01:38:07;;;;;;;18.02;11.07;;;1.20;99.90;;;;;;5003482;28;20549;-67
2021/11/11 01:40:33;;;;;;;17.13;10.68;;;1.20;99.90;;;;;;4994723;28;20044;-67
2021/11/11 01:43:02;;;;;;;17.90;10.57;;;1.20;99.90;;;;;;4995498;28;20088;-67
2021/11/11 01:45:33;;;;;;;19.23;11.02;;;1.30;99.90;;;;;;5002898;28;20034;-67
2021/11/11 01:47:59;;;;;;;13.18;9.18;;;1.30;99.90;;;;;;5007945;28;20117;-67
2021/11/11 01:50:26;;;;;;;19.55;12.68;;;1.30;99.90;;;;;;5002700;28;22432;-68
2021/11/11 01:52:53;;;;;;;27.42;11.70;;;1.40;99.90;;;;;;4999380;28;20635;-67
2021/11/11 01:55:19;;;;;;;20.13;11.05;;;1.30;99.90;;;;;;4995520;28;20025;-68
2021/11/11 01:57:46;;;;;;;11.27;8.43;;;1.20;99.90;;;;;;5003435;28;20120;-67
2021/11/11 02:00:17;;;;;;;21.77;11.63;;;1.30;99.90;;;;;;5007654;28;20032;-66
2021/11/11 02:02:43;;;;;;;42.05;10.68;;;1.20;99.90;;;;;;5000080;28;20124;-66
2021/11/11 02:05:09;;;;;;;18.27;10.60;;;1.20;99.90;;;;;;5003546;28;21963;-67
2021/11/11 02:07:35;;;;;;;21.23;10.93;;;1.30;99.90;;;;;;4996376;28;20045;-66
2021/11/11 02:10:00;;;;;;;21.92;9.90;;;1.30;99.90;;;;;;5001667;28;20915;-67
2021/11/11 02:12:29;;;;;;;23.67;9.65;;;1.20;99.90;;;;;;5000707;28;20038;-67
2021/11/11 02:14:57;;;;;;;24.50;10.07;;;1.20;99.90;;;;;;5003528;28;20471;-67
2021/11/11 02:17:30;;;;;;;32.05;11.68;;;1.20;99.90;;;;;;5014685;28;20022;-67
2021/11/11 02:20:03;;;;;;;24.38;11.18;;;1.10;99.90;;;;;;4994149;28;20110;-66
2021/11/11 02:22:28;;;;;;;22.77;10.38;;;1.10;99.90;;;;;;5003143;28;20744;-67
2021/11/11 02:24:54;;;;;;;15.95;9.80;;;1.20;99.90;;;;;;5002944;28;20022;-67
2021/11/11 02:27:20;;;;;;;23.17;10.15;;;1.30;99.90;;;;;;5011768;28;20058;-67
2021/11/11 02:29:45;;;;;;;15.63;10.85;;;1.20;99.90;;;;;;5004508;28;20026;-67
2021/11/11 02:32:11;;;;;;;16.45;9.57;;;1.20;99.90;;;;;;5012832;28;20041;-66
2021/11/11 02:34:37;;;;;;;23.65;10.93;;;1.10;99.90;;;;;;5007392;28;20549;-67
2021/11/11 02:37:05;;;;;;;16.00;10.75;;;1.20;99.90;;;;;;4991822;28;20034;-67
2021/11/11 02:39:34;;;;;;;23.95;10.60;;;1.20;99.90;;;;;;5001438;28;20526;-67
2021/11/11 02:42:01;;;;;;;14.50;9.90;;;1.10;99.90;;;;;;4998329;28;20044;-67
2021/11/11 02:44:28;;;;;;;23.58;9.43;;;1.20;99.90;;;;;;5000436;28;20030;-67
2021/11/11 02:46:56;;;;;;;34.15;9.15;;;1.20;99.90;;;;;;4997745;28;20051;-67
2021/11/11 02:49:22;;;;;;;23.05;9.18;;;1.20;99.90;;;;;;5001709;28;20033;-67
2021/11/11 02:51:48;;;;;;;10.68;8.52;;;1.10;99.90;;;;;;5001801;28;20037;-66
2021/11/11 02:54:14;;;;;;;15.77;8.07;;;1.10;99.90;;;;;;5000666;28;21435;-66
2021/11/11 02:56:40;;;;;;;14.50;9.27;;;1.00;99.90;;;;;;5000319;28;20034;-66
2021/11/11 02:59:06;;;;;;;34.35;10.30;;;1.00;99.90;;;;;;4997611;28;20041;-66
2021/11/11 03:01:32;;;;;;;20.58;10.73;;;1.00;99.90;;;;;;5000745;28;20026;-67
2021/11/11 03:03:57;;;;;;;14.20;9.65;;;1.00;99.90;;;;;;5012906;28;20039;-66
2021/11/11 03:06:23;;;;;;;34.72;10.23;;;1.10;99.90;;;;;;5001793;28;21059;-67
2021/11/11 03:08:49;;;;;;;43.65;10.40;;;1.00;99.90;;;;;;4998815;28;20785;-66
2021/11/11 03:11:15;;;;;;;15.38;8.82;;;1.00;99.90;;;;;;4987025;28;20087;-67
2021/11/11 03:13:40;;;;;;;28.00;10.38;;;1.00;99.90;;;;;;4999788;28;20061;-66
2021/11/11 03:16:06;;;;;;;70.22;14.63;;;1.00;99.90;;;;;;5001927;28;20058;-66
2021/11/11 03:18:32;;;;;;;30.75;9.07;;;1.10;99.90;;;;;;5019278;28;20040;-66
2021/11/11 03:20:59;;;;;;;63.67;12.32;;;1.10;99.90;;;;;;5008128;28;20056;-66
2021/11/11 03:23:25;;;;;;;35.85;13.70;;;1.00;99.90;;;;;;5002914;28;20384;-67
2021/11/11 03:25:51;;;;;;;22.08;10.40;;;1.00;99.90;;;;;;5002140;28;20014;-66
2021/11/11 03:28:17;;;;;;;13.30;10.02;;;1.00;99.90;;;;;;5022367;28;20053;-67
2021/11/11 03:30:43;;;;;;;45.50;11.23;;;1.10;99.90;;;;;;5000327;28;20573;-66
2021/11/11 03:33:09;;;;;;;40.38;12.07;;;1.00;99.90;;;;;;4998288;28;20806;-67
2021/11/11 03:35:36;;;;;;;26.60;10.07;;;1.10;99.90;;;;;;5001701;28;20157;-66
2021/11/11 03:38:06;;;;;;;38.95;10.65;;;1.10;99.90;;;;;;5001682;28;20030;-66
2021/11/11 03:40:35;;;;;;;63.05;12.52;;;1.10;99.90;;;;;;5001745;28;21762;-67
2021/11/11 03:43:01;;;;;;;48.75;10.23;;;1.10;99.90;;;;;;5000120;28;21621;-68
2021/11/11 03:45:28;;;;;;;44.78;10.75;;;1.20;99.90;;;;;;5001142;28;20097;-67
2021/11/11 03:47:54;;;;;;;154.68;16.75;;;1.10;99.90;;;;;;5003600;28;20037;-67
2021/11/11 03:50:21;;;;;;;23.95;8.98;;;1.10;99.90;;;;;;4995323;28;20406;-67
2021/11/11 03:52:47;;;;;;;55.05;11.10;;;1.10;99.90;;;;;;5004075;28;20050;-68
2021/11/11 03:55:14;;;;;;;58.53;10.57;;;1.10;99.90;;;;;;5010939;28;20049;-67
2021/11/11 03:57:41;;;;;;;15.23;8.32;;;1.10;99.90;;;;;;4995645;28;20041;-67
2021/11/11 04:00:10;;;;;;;63.58;10.10;;;1.10;99.90;;;;;;4996944;28;20415;-67
2021/11/11 04:02:35;;;;;;;36.72;9.80;;;1.10;99.90;;;;;;4993234;28;20030;-67
2021/11/11 04:05:02;;;;;;;47.80;10.48;;;1.10;99.90;;;;;;4999916;28;20033;-67
2021/11/11 04:07:28;;;;;;;51.90;10.05;;;1.10;99.90;;;;;;4990841;28;20053;-67
2021/11/11 04:09:53;;;;;;;32.05;9.32;;;1.10;99.90;;;;;;4993697;28;20152;-67
2021/11/11 04:12:19;;;;;;;17.15;9.27;;;1.10;99.90;;;;;;4997225;28;20101;-68
2021/11/11 04:14:45;;;;;;;17.88;8.55;;;1.00;99.90;;;;;;4998488;28;20038;-66
2021/11/11 04:17:10;;;;;;;15.65;8.35;;;1.10;99.90;;;;;;4996857;28;20569;-66
2021/11/11 04:19:36;;;;;;;38.47;9.88;;;1.10;99.90;;;;;;5002961;28;20034;-66
2021/11/11 04:22:03;;;;;;;53.75;11.20;;;1.10;99.90;;;;;;4990903;28;20033;-66
2021/11/11 04:24:29;;;;;;;42.97;9.80;;;1.10;99.90;;;;;;4994776;28;20383;-67
2021/11/11 04:27:09;;;;;;;28.27;9.05;;;1.00;99.90;;;;;;4995568;28;20029;-66
2021/11/11 04:29:40;;;;;;;16.25;9.90;;;1.00;99.90;;;;;;4999749;28;20041;-66
2021/11/11 04:32:09;;;;;;;20.63;8.88;;;1.00;99.90;;;;;;5000336;28;20061;-65
2021/11/11 04:34:35;;;;;;;41.40;10.48;;;1.00;99.90;;;;;;5003555;28;20036;-66
2021/11/11 04:45:36;;;;;;;12.88;7.40;;;1.00;99.90;;;;;;5003454;28;20439;-66
2021/11/11 05:03:52;;;;;;;14.15;7.88;;;1.00;99.90;;;;;;5001566;28;20022;-66
2021/11/11 05:06:18;;;;;;;12.38;8.48;;;1.00;99.90;;;;;;5000201;28;20028;-67
2021/11/11 05:08:44;;;;;;;8.90;7.63;;;0.90;99.90;;;;;;5010646;28;20030;-66
2021/11/11 05:11:10;;;;;;;39.10;10.10;;;1.00;99.90;;;;;;4999742;28;20144;-66
2021/11/11 05:13:37;;;;;;;27.48;8.80;;;1.00;99.90;;;;;;4997232;28;20025;-66
2021/11/11 05:16:06;;;;;;;10.65;7.85;;;1.00;99.90;;;;;;5005830;28;20133;-66
2021/11/11 05:18:32;;;;;;;75.85;10.35;;;1.00;99.90;;;;;;5012869;28;20030;-66
2021/11/11 05:20:57;;;;;;;55.38;11.98;;;1.00;99.90;;;;;;5005230;28;20053;-66
2021/11/11 05:23:23;;;;;;;43.65;10.05;;;1.00;99.90;;;;;;4996210;28;20129;-66
2021/11/11 05:25:49;;;;;;;22.85;9.30;;;1.00;99.90;;;;;;5001801;28;20017;-66
2021/11/11 05:28:15;;;;;;;48.03;11.38;;;0.90;99.90;;;;;;5006143;28;20034;-66
2021/11/11 05:30:41;;;;;;;13.13;9.05;;;0.90;99.90;;;;;;4995222;28;20076;-66
2021/11/11 05:33:07;;;;;;;25.13;8.60;;;1.00;99.90;;;;;;5002681;28;20041;-66
2021/11/11 05:35:32;;;;;;;21.20;8.93;;;0.90;99.90;;;;;;5002630;28;20034;-66
2021/11/11 05:37:58;;;;;;;10.93;7.55;;;0.90;99.90;;;;;;5000629;28;20025;-66
2021/11/11 05:40:24;;;;;;;30.77;9.80;;;0.90;99.90;;;;;;5000369;28;20037;-66
2021/11/11 05:42:51;;;;;;;27.48;10.27;;;0.90;99.90;;;;;;4999800;28;20022;-66
2021/11/11 05:45:17;;;;;;;22.30;8.80;;;0.90;99.90;;;;;;4996234;28;20026;-66
2021/11/11 05:47:44;;;;;;;17.02;8.05;;;0.90;99.90;;;;;;5007002;28;20040;-66
2021/11/11 05:50:11;;;;;;;16.48;7.82;;;0.90;99.90;;;;;;5008461;28;20544;-66
2021/11/11 05:52:37;;;;;;;13.48;8.60;;;0.90;99.90;;;;;;5004291;28;20494;-67
2021/11/11 05:55:06;;;;;;;21.83;8.30;;;0.90;99.90;;;;;;5006360;28;20113;-67
2021/11/11 05:57:32;;;;;;;47.38;11.93;;;0.90;99.90;;;;;;5000717;28;20022;-66
2021/11/11 05:59:58;;;;;;;10.60;7.93;;;0.90;99.90;;;;;;4999701;28;21098;-67
2021/11/11 06:02:23;;;;;;;11.98;8.73;;;0.90;99.90;;;;;;5005441;28;20089;-67
2021/11/11 06:04:49;;;;;;;33.42;10.00;;;0.90;99.90;;;;;;4999933;28;20537;-67
2021/11/11 06:07:15;;;;;;;35.58;10.80;;;0.90;99.90;;;;;;5017753;28;20050;-68
2021/11/11 06:09:41;;;;;;;18.77;7.57;;;0.90;99.90;;;;;;4998109;28;20125;-67
2021/11/11 06:12:07;;;;;;;14.77;9.00;;;0.90;99.90;;;;;;4999095;28;20195;-67
2021/11/11 06:14:33;;;;;;;26.75;8.80;;;0.80;99.90;;;;;;5007553;28;22172;-67
2021/11/11 06:17:00;;;;;;;22.02;9.70;;;0.90;99.90;;;;;;5007157;28;20061;-67
2021/11/11 06:19:27;;;;;;;11.57;7.78;;;0.90;99.90;;;;;;5003627;28;20029;-67
2021/11/11 06:21:53;;;;;;;29.70;9.05;;;0.90;99.90;;;;;;5004242;28;20471;-67
2021/11/11 06:24:20;;;;;;;16.40;7.25;;;0.90;99.90;;;;;;5002519;28;20044;-67
2021/11/11 06:26:46;;;;;;;16.60;7.95;;;0.90;99.90;;;;;;5006803;28;20360;-68
2021/11/11 06:29:12;;;;;;;44.08;11.57;;;0.90;99.90;;;;;;5003996;28;20092;-67
2021/11/11 06:31:39;;;;;;;14.05;8.40;;;0.90;99.90;;;;;;4994479;28;20038;-67
2021/11/11 06:34:04;;;;;;;10.90;8.30;;;0.90;99.90;;;;;;4995303;28;20029;-67
2021/11/11 06:36:31;;;;;;;12.30;8.02;;;1.00;99.90;;;;;;5013997;28;20042;-68
2021/11/11 06:38:57;;;;;;;18.50;9.88;;;1.00;99.90;;;;;;4994328;28;20029;-68
2021/11/11 06:41:22;;;;;;;25.23;8.40;;;1.00;99.90;;;;;;4998056;28;20356;-67
2021/11/11 06:43:48;;;;;;;47.65;9.80;;;1.00;99.90;;;;;;4999361;28;20083;-67
2021/11/11 06:46:14;;;;;;;27.88;11.13;;;0.90;99.90;;;;;;5000253;28;21728;-67
2021/11/11 06:48:40;;;;;;;62.85;10.25;;;0.90;99.90;;;;;;5001606;28;20042;-67
2021/11/11 06:51:07;;;;;;;17.67;8.18;;;0.90;99.90;;;;;;5006200;28;20034;-68
2021/11/11 06:53:33;;;;;;;37.95;9.18;;;0.90;99.90;;;;;;5003481;28;20067;-67
2021/11/11 06:55:59;;;;;;;50.30;9.40;;;0.90;99.90;;;;;;4997360;28;20957;-67
2021/11/11 06:58:25;;;;;;;38.78;9.48;;;0.90;99.90;;;;;;5009667;28;20022;-67
2021/11/11 07:00:53;;;;;;;24.13;8.45;;;0.90;99.90;;;;;;4999541;28;20583;-67
2021/11/11 07:03:22;;;;;;;16.42;7.70;;;0.90;99.90;;;;;;5003206;28;20034;-67
2021/11/11 07:05:48;;;;;;;35.45;10.20;;;0.90;99.90;;;;;;4998563;28;20061;-67
2021/11/11 07:08:14;;;;;;;27.70;8.93;;;1.00;99.90;;;;;;4999125;28;20427;-67
2021/11/11 07:10:42;;;;;;;25.23;7.82;;;1.00;99.90;;;;;;4999160;28;20519;-67
2021/11/11 07:13:09;;;;;;;20.92;8.98;;;0.90;99.90;;;;;;4995345;28;20040;-67
2021/11/11 07:15:36;;;;;;;22.83;8.05;;;0.90;99.90;;;;;;4998120;28;20042;-67
2021/11/11 07:18:01;;;;;;;37.22;9.90;;;0.90;99.90;;;;;;4994782;28;20026;-67
2021/11/11 07:20:27;;;;;;;12.52;7.70;;;0.90;99.90;;;;;;5004271;28;20040;-67
2021/11/11 07:22:59;;;;;;;16.30;9.00;;;0.90;99.90;;;;;;4998268;28;20026;-67
2021/11/11 07:25:25;;;;;;;18.75;9.32;;;0.90;99.90;;;;;;5003317;28;20523;-67
2021/11/11 07:27:52;;;;;;;34.45;9.18;;;1.00;99.90;;;;;;4999882;28;20458;-67
2021/11/11 07:30:19;;;;;;;19.58;8.63;;;1.00;99.90;;;;;;4991732;28;20700;-67
2021/11/11 07:32:44;;;;;;;15.68;9.10;;;0.90;99.90;;;;;;4992158;28;20030;-67
2021/11/11 07:35:11;;;;;;;22.10;8.93;;;0.90;99.90;;;;;;4994686;28;20033;-67
2021/11/11 07:37:39;;;;;;;11.43;7.60;;;1.00;99.90;;;;;;4990235;28;21612;-67
2021/11/11 07:40:06;;;;;;;18.42;9.85;;;1.10;99.90;;;;;;4992179;28;20056;-67
2021/11/11 07:42:32;;;;;;;32.25;8.50;;;1.00;99.90;;;;;;4990781;28;20025;-67
2021/11/11 07:44:58;;;;;;;27.23;7.95;;;1.10;99.90;;;;;;5002440;28;20116;-67
2021/11/11 07:47:27;;;;;;;17.45;8.07;;;1.10;99.90;;;;;;4991289;28;20133;-68
2021/11/11 07:49:58;;;;;;;11.45;7.85;;;1.10;99.90;;;;;;4989110;28;20415;-67
2021/11/11 07:52:25;;;;;;;41.88;9.27;;;1.10;99.90;;;;;;4991173;28;20129;-67
2021/11/11 07:54:51;;;;;;;35.60;9.73;;;1.10;99.90;;;;;;4998167;28;20501;-67
2021/11/11 07:57:21;;;;;;;19.75;8.68;;;1.10;99.90;;;;;;5003736;28;20029;-67
2021/11/11 07:59:48;;;;;;;56.58;9.80;;;1.20;99.90;;;;;;5002887;28;20026;-67
2021/11/11 08:02:15;;;;;;;49.10;10.07;;;1.20;99.90;;;;;;5002102;28;20048;-66
2021/11/11 08:04:40;;;;;;;13.52;8.40;;;1.20;99.90;;;;;;4994865;28;20730;-67
2021/11/11 08:07:06;;;;;;;12.73;8.63;;;1.20;99.90;;;;;;5006974;28;20029;-67
2021/11/11 08:09:32;;;;;;;18.48;8.25;;;1.20;99.90;;;;;;4991750;28;20061;-67
2021/11/11 08:11:58;;;;;;;15.68;8.88;;;1.30;99.90;;;;;;5000596;28;20108;-67
2021/11/11 08:14:25;;;;;;;29.92;9.18;;;1.20;99.90;;;;;;5000646;28;20038;-67
2021/11/11 08:16:51;;;;;;;46.25;11.05;;;1.30;99.90;;;;;;5006814;28;20022;-67
2021/11/11 08:19:17;;;;;;;16.80;8.25;;;1.30;99.90;;;;;;5022626;28;20054;-67
2021/11/11 08:21:43;;;;;;;21.42;8.15;;;1.30;99.90;;;;;;5000812;28;20827;-67
2021/11/11 08:24:09;;;;;;;15.15;8.57;;;1.30;99.90;;;;;;4997149;28;20049;-67
2021/11/11 08:26:35;;;;;;;20.55;10.52;;;1.40;99.90;;;;;;4999441;28;20030;-67
2021/11/11 08:29:00;;;;;;;19.25;8.45;;;1.40;99.90;;;;;;4994306;28;20034;-67
2021/11/11 08:31:26;;;;;;;37.45;8.93;;;1.50;99.90;;;;;;5000033;28;20034;-67
2021/11/11 08:33:52;;;;;;;19.08;8.43;;;1.40;99.90;;;;;;4995698;28;20037;-67
2021/11/11 08:36:18;;;;;;;17.17;7.85;;;1.40;99.90;;;;;;4997450;28;20050;-68
2021/11/11 08:38:44;;;;;;;44.83;9.00;;;1.50;99.90;;;;;;4996039;28;20037;-67
2021/11/11 08:41:10;;;;;;;28.05;7.60;;;1.50;99.90;;;;;;4993993;28;20060;-67
2021/11/11 08:43:37;;;;;;;28.10;8.75;;;1.40;99.90;;;;;;5000275;28;20018;-67
2021/11/11 08:46:03;;;;;;;37.95;10.52;;;1.50;99.90;;;;;;5005591;28;20034;-67
2021/11/11 08:48:28;;;;;;;33.33;9.90;;;1.50;99.90;;;;;;4997563;28;20034;-67
2021/11/11 08:50:56;;;;;;;24.00;8.23;;;1.50;99.90;;;;;;5004787;28;20033;-68
2021/11/11 08:53:21;;;;;;;16.98;8.77;;;1.60;99.90;;;;;;5001412;28;20096;-67
2021/11/11 08:55:48;;;;;;;31.58;9.20;;;1.60;99.90;;;;;;5016542;28;20057;-67
2021/11/11 08:58:15;;;;;;;33.22;9.07;;;1.60;99.90;;;;;;4998982;28;20029;-68
2021/11/11 09:00:44;;;;;;;11.52;9.15;;;1.60;99.90;;;;;;4998192;28;20034;-67
2021/11/11 09:03:12;;;;;;;28.00;8.35;;;1.60;99.90;;;;;;5003987;28;20037;-67
2021/11/11 09:05:39;;;;;;;17.23;10.13;;;1.60;99.90;;;;;;5008421;28;20017;-67
2021/11/11 09:08:07;;;;;;;53.42;11.93;;;1.70;99.90;;;;;;5002623;28;20030;-67
2021/11/11 09:10:34;;;;;;;20.38;8.93;;;1.70;99.90;;;;;;5003595;28;20030;-67
2021/11/11 09:13:00;;;;;;;29.75;9.15;;;1.70;99.90;;;;;;4999231;28;20136;-67
2021/11/11 09:15:27;;;;;;;23.38;10.55;;;1.80;99.90;;;;;;5009673;28;20136;-68
2021/11/11 09:17:59;;;;;;;50.97;14.75;;;1.80;99.90;;;;;;5006259;28;20117;-67
2021/11/11 09:20:27;;;;;;;25.35;8.70;;;1.70;99.90;;;;;;4991597;28;20034;-67
2021/11/11 09:22:55;;;;;;;14.77;9.30;;;1.70;99.90;;;;;;5000041;28;20030;-67
2021/11/11 09:25:22;;;;;;;14.55;7.63;;;1.80;99.90;;;;;;5009977;28;20498;-67
2021/11/11 09:27:48;;;;;;;15.00;7.83;;;1.80;99.90;;;;;;5000993;28;20030;-68
2021/11/11 09:30:22;;;;;;;23.02;8.05;;;1.90;99.90;;;;;;5004615;28;20030;-67
2021/11/11 09:32:48;;;;;;;10.40;8.18;;;1.90;99.90;;;;;;4997141;28;20042;-67
2021/11/11 09:35:14;;;;;;;19.00;8.57;;;1.80;99.90;;;;;;5002188;28;20033;-67
2021/11/11 09:37:40;;;;;;;19.10;8.38;;;1.90;99.90;;;;;;5001372;28;20081;-67
2021/11/11 09:40:10;;;;;;;28.60;8.55;;;2.00;99.90;;;;;;5002863;28;20105;-67
2021/11/11 09:42:35;;;;;;;29.98;9.60;;;2.00;99.90;;;;;;5003036;28;20083;-67
2021/11/11 09:45:04;;;;;;;29.30;9.05;;;2.10;99.90;;;;;;4994113;28;21627;-67
2021/11/11 09:47:31;;;;;;;17.48;7.57;;;2.10;99.90;;;;;;5021696;28;20510;-68
2021/11/11 09:49:57;;;;;;;14.52;8.18;;;2.20;99.90;;;;;;5005352;28;20120;-67
2021/11/11 09:52:25;;;;;;;8.95;6.60;;;2.20;99.90;;;;;;5002634;28;20069;-67
2021/11/11 10:00:19;;;;;;;11.77;8.25;;;2.40;99.90;;;;;;4993832;28;20119;-67
2021/11/11 10:02:45;;;;;;;19.65;8.52;;;2.60;99.90;;;;;;4997953;28;20533;-67
2021/11/11 10:05:11;;;;;;;33.22;9.35;;;2.60;99.90;;;;;;4999940;28;20032;-67
2021/11/11 10:07:38;;;;;;;42.80;9.02;;;2.60;99.90;;;;;;5005515;28;20060;-67
2021/11/11 10:10:04;;;;;;;13.75;9.85;;;2.60;99.90;;;;;;5004030;28;20037;-67
2021/11/11 10:12:32;;;;;;;12.68;7.80;;;2.70;99.90;;;;;;4997388;28;20091;-67
2021/11/11 10:15:09;;;;;;;18.42;9.90;;;2.80;99.90;;;;;;5008429;28;20026;-67
2021/11/11 10:17:41;;;;;;;17.63;9.90;;;2.80;99.90;;;;;;5005905;28;20048;-67
2021/11/11 10:20:08;;;;;;;12.75;9.40;;;3.00;99.90;;;;;;5000804;28;20069;-67
2021/11/11 10:22:36;;;;;;;11.77;8.45;;;3.00;99.90;;;;;;5004140;28;20034;-66
2021/11/11 10:25:06;;;;;;;33.67;10.27;;;3.10;99.90;;;;;;4995861;28;20394;-66
2021/11/11 10:27:43;;;;;;;12.70;8.90;;;3.20;99.90;;;;;;5006536;28;20033;-66
2021/11/11 10:30:26;;;;;;;13.15;9.70;;;3.20;99.90;;;;;;5002227;28;20064;-67
2021/11/11 10:32:51;;;;;;;15.07;10.07;;;3.40;99.90;;;;;;4991087;28;20169;-66
2021/11/11 10:35:25;;;;;;;15.70;10.40;;;3.40;99.90;;;;;;4991907;28;20034;-66
2021/11/11 10:38:01;;;;;;;13.45;9.57;;;3.50;99.90;;;;;;5007401;28;20084;-67
2021/11/11 10:40:33;;;;;;;16.30;9.68;;;3.60;99.90;;;;;;5016140;28;20145;-67
2021/11/11 10:43:03;;;;;;;15.02;9.95;;;3.60;99.90;;;;;;5002943;28;20101;-67
2021/11/11 10:45:31;;;;;;;16.67;10.70;;;3.60;99.90;;;;;;5003738;28;20037;-66
2021/11/11 10:48:00;;;;;;;19.00;12.13;;;3.70;99.90;;;;;;4999867;28;20026;-67
2021/11/11 10:50:31;;;;;;;17.35;11.85;;;3.80;99.90;;;;;;5017062;28;20046;-67
2021/11/11 10:53:02;;;;;;;24.35;12.98;;;3.80;99.90;;;;;;5004052;28;20057;-67
2021/11/11 10:55:35;;;;;;;19.13;11.20;;;4.00;99.90;;;;;;5009624;28;20029;-66
2021/11/11 10:58:03;;;;;;;16.83;12.57;;;4.00;99.90;;;;;;4991922;28;20113;-67
2021/11/11 11:00:38;;;;;;;14.50;10.95;;;4.10;99.90;;;;;;4991214;28;20029;-67
2021/11/11 11:03:11;;;;;;;13.27;10.52;;;4.20;99.90;;;;;;4995614;28;20026;-67
2021/11/11 11:05:48;;;;;;;15.20;10.52;;;4.30;99.90;;;;;;4992952;28;21595;-67
2021/11/11 11:08:30;;;;;;;13.77;8.98;;;4.50;99.90;;;;;;5004545;28;20034;-68
2021/11/11 11:11:23;;;;;;;13.80;9.63;;;4.50;99.90;;;;;;5002732;28;20140;-67
2021/11/11 11:13:52;;;;;;;13.93;9.25;;;4.60;99.90;;;;;;4993538;28;20050;-68
2021/11/11 11:16:24;;;;;;;14.95;11.38;;;4.80;99.90;;;;;;5015479;28;20180;-68
2021/11/11 11:18:57;;;;;;;19.10;12.45;;;4.80;99.90;;;;;;5003796;28;20128;-67
2021/11/11 11:21:27;;;;;;;16.67;11.20;;;4.90;99.90;;;;;;4997953;28;20022;-68
2021/11/11 11:24:01;;;;;;;16.63;12.02;;;4.80;99.90;;;;;;4997547;28;20026;-67
2021/11/11 11:26:28;;;;;;;18.85;12.75;;;4.90;99.90;;;;;;4996554;28;20037;-68
2021/11/11 11:29:04;;;;;;;21.05;13.15;;;5.00;99.90;;;;;;4990349;28;20030;-67
2021/11/11 11:32:23;;;;;;;25.83;14.55;;;5.00;99.90;;;;;;5001276;28;20113;-67
2021/11/11 11:34:30;;;;;;;22.35;13.10;;;5.00;99.90;;;;;;4995782;28;20120;-67
2021/11/11 11:37:00;;;;;;;;;;;5.00;99.90;;;;;;5001948;28;20041;-67
2021/11/11 11:39:32;;;;;;;29.60;16.13;;;5.10;99.90;;;;;;5017222;28;20297;-67
2021/11/11 11:42:08;;;;;;;29.45;15.88;;;5.20;99.90;;;;;;4998666;28;20532;-67
2021/11/11 11:44:36;;;;;;;26.08;15.75;;;5.30;99.90;;;;;;4992607;28;21022;-67
2021/11/11 11:47:07;;;;;;;32.27;16.87;;;5.30;99.90;;;;;;4989761;28;20088;-68
2021/11/11 11:49:34;;;;;;;36.92;19.60;;;5.20;99.90;;;;;;5000720;28;20280;-68
2021/11/11 11:52:02;;;;;;;37.40;20.05;;;5.30;99.90;;;;;;5010714;28;20058;-67
2021/11/11 11:54:43;;;;;;;37.85;20.80;;;5.20;99.90;;;;;;5011118;28;20029;-67
2021/11/11 11:57:23;;;;;;;40.47;21.05;;;5.20;99.90;;;;;;5000316;28;21038;-67
2021/11/11 11:59:55;;;;;;;43.83;21.27;;;5.30;99.90;;;;;;5012878;28;20030;-66
2021/11/11 12:02:33;;;;;;;39.05;20.73;;;5.30;99.90;;;;;;4991825;28;20432;-66
2021/11/11 12:10:54;;;;;;;39.95;19.85;;;5.40;99.90;;;;;;4993527;28;20062;-67
2021/11/11 12:13:48;;;;;;;33.72;18.38;;;5.40;99.90;;;;;;4996039;28;20022;-66
2021/11/11 12:39:41;;;;;;;37.20;18.50;;;5.40;99.90;;;;;;4995012;28;20514;-66
2021/11/11 12:42:11;;;;;;;36.88;19.65;;;5.40;99.90;;;;;;5006599;28;20029;-67
2021/11/11 12:44:58;;;;;;;31.80;17.95;;;5.40;99.90;;;;;;4992628;28;20464;-67
2021/11/11 12:47:56;;;;;;;33.22;18.20;;;5.40;99.90;;;;;;4995737;28;20030;-67
2021/11/11 12:50:49;;;;;;;31.58;17.85;;;5.40;99.90;;;;;;4992393;28;20038;-67
2021/11/11 12:53:15;;;;;;;31.27;18.50;;;5.40;99.90;;;;;;4999963;28;20506;-66
2021/11/11 12:55:48;;;;;;;31.92;17.50;;;5.30;99.90;;;;;;4996942;28;20036;-67
2021/11/11 12:58:20;;;;;;;37.33;19.05;;;5.20;99.90;;;;;;5007779;28;20037;-67
2021/11/11 13:00:48;;;;;;;36.38;20.02;;;5.20;99.90;;;;;;5009483;28;20026;-67
2021/11/11 13:03:17;;;;;;;36.25;19.02;;;5.10;99.90;;;;;;5002042;28;20037;-67
2021/11/11 13:05:52;;;;;;;36.85;20.02;;;5.20;99.90;;;;;;5002565;28;20061;-67
2021/11/11 13:08:20;;;;;;;34.67;19.00;;;5.20;99.90;;;;;;5010761;28;20566;-67
2021/11/11 13:10:51;;;;;;;45.15;21.13;;;5.20;99.90;;;;;;4999418;28;20040;-67
2021/11/11 13:13:23;;;;;;;39.80;19.45;;;5.20;99.90;;;;;;4994697;28;20026;-67
2021/11/11 13:15:49;;;;;;;42.65;20.52;;;5.20;99.90;;;;;;4996382;28;20592;-67
2021/11/11 13:18:39;;;;;;;40.40;19.65;;;5.20;99.90;;;;;;4999034;28;20034;-67
2021/11/11 13:21:26;;;;;;;37.58;19.88;;;5.20;99.90;;;;;;5007547;28;20026;-67
2021/11/11 13:24:18;;;;;;;33.38;18.42;;;5.20;99.90;;;;;;5021986;28;20057;-67
2021/11/11 14:00:17;;;;;;;35.88;18.95;;;5.40;99.90;;;;;;5002135;28;20056;-67
2021/11/11 15:04:54;;;;;;;36.60;18.17;;;6.10;99.90;;;;;;5009753;28;20048;-67
2021/11/11 16:02:20;;;;;;;58.42;20.27;;;5.60;99.90;;;;;;5000950;28;20061;-67
2021/11/11 16:21:23;;;;;;;31.98;16.33;;;5.10;99.90;;;;;;5004975;28;20041;-66
2021/11/11 16:26:23;;;;;;;37.47;18.23;;;5.10;99.90;;;;;;4994123;28;20479;-66
2021/11/11 16:28:56;;;;;;;33.38;17.45;;;5.00;99.90;;;;;;5020839;28;20096;-66
2021/11/11 16:31:22;;;;;;;36.72;16.05;;;4.90;99.90;;;;;;5007788;28;20026;-66
2021/11/11 16:33:49;;;;;;;34.63;17.15;;;4.80;99.90;;;;;;5009528;28;20034;-67
2021/11/11 16:36:16;;;;;;;42.55;20.45;;;4.80;99.90;;;;;;4999823;28;20442;-67